EGSH - Norwich Weather Centre
Distance from station: E 5mi, 14km
Updated: 06/23/2024 9:50am
Few Clouds
Few Clouds
 Wind from ENE
Wind: ENE 7 mph , 11 km/h
Temperature: 73°F , 23°C
Dew Point: 57°F , 14°C
Humidity: 57%
Barometer: 30.09 inHg , 1019 hPa
Clouds: Few Clouds
Visibility: 6 miles , 10 km
Cloud details: Few Clouds 4600 ft
2024/06/23 16:50 EGSH 231650Z 06006KT 020V100 9999 FEW046 23/14 Q1019 NOSIG